Tropical Cyclones
[Index]
Main Index Home Page Stock Weather Photos Extreme Storms Discussion Storm News and Storm Chasing Reports Tropical Cyclones / Hurricanes / Typhoons Weather Data and Links Wild Fires / Bushfires Weather Observation Techniques Weather Picture Catalogue Tornado Pictures and Reports Stock Video Footage and DVDs for sale
Season 1958-1959 Tropical Cyclone 195922 Track Map
Season 1958-1959 Summaries: [BoM-AU] [JTWC-AU] [JTWC-SIO] [JTWC-SPAC] [JTWC-SH]
<<- Previous TC | JTWC 1958-1959 Season | Next TC ->>

click for intensity scale information  Lat/long Grid: Show Hide

 Date Labels: Show Hide

Joint Typhoon Warning Centre Cyclone Data

Name: 195922
Number: 362 / 5922

22 Feb 1959 12:00 UTC to 02 Mar 1959 00:00 UTC

    date/time    lat    long     hPa   cat  kts
1959-02-22 12    7.8   163.9W                             
1959-02-22 18    8.5   164.4W                             
1959-02-23 00    8.9   165.0W                             
1959-02-23 06    9.2   165.5W                             
1959-02-23 12    9.4   166.1W                             
1959-02-23 18    9.7   166.6W                             
1959-02-24 00   10.0   167.2W                             
1959-02-24 06   10.2   167.9W                             
1959-02-24 12   10.4   168.6W                             
1959-02-24 18   10.6   169.1W                             
1959-02-25 00   11.1   169.5W                             
1959-02-25 06   12.2   169.9W                             
1959-02-25 12   13.5   170.3W                             
1959-02-25 18   14.6   170.0W                             
1959-02-26 00   15.7   169.6W                             
1959-02-26 06   16.6   169.5W                             
1959-02-26 12   17.3   169.5W                             
1959-02-26 18   17.7   169.5W                             
1959-02-27 00   18.2   169.7W                             
1959-02-27 06   19.6   170.1W                             
1959-02-27 12   21.0   170.5W                             
1959-02-27 18   22.1   170.9W                             
1959-02-28 00   23.2   171.2W                             
1959-02-28 06   24.4   171.6W                             
1959-02-28 12   25.6   172.1W                             
1959-02-28 18   26.8   172.7W                             
1959-03-01 00   28.0   172.0W                             
1959-03-01 06   29.0   169.6W                             
1959-03-01 12   29.7   167.0W                             
1959-03-01 18   30.1   164.5W                             
1959-03-02 00   30.2   161.9W                             
Winds are 1-min average.

Tropical cyclone tracks developed by Michael Bath using data from the Joint Typhoon Warning Centre Best Tracks and Google Maps.


[Australian Severe Weather index] [Copyright Notice] [Email Contacts] [Search This Site] [Privacy Policy]
Document: tropical_cyclone_195922.htm Updated: 18 September 2016